Terminal Aerodrome Forecast
Issued by NWS

Home | Current Version | Previous Version | Graphics & Text | Print | Product List | Glossary On
Versions: 1 2 3 4 5 6 7 8 9 10 11 12 13 14 15 16 17 18 19 20
458
FTUS43 KMPX 162339
TAFRNH
TAF
KRNH 162339Z 1700/1724 12005KT P6SM SCT015 OVC080
     FM171400 15011KT 6SM -DZ BR OVC014
     FM171600 15008KT 4SM -DZ BR OVC008=

USA.gov is the U.S. government's official web portal to all federal, state and local government web resources and services.